Aeroporto :
LOGIN :

Iscrizione | Disclaimer

   EN    FR    IT 

 










Sommario :    VFR   VFR Marginale   IFR   IFR Intensivo   IFR Molto Intensivo
Visibilità : 
Base nubi : 
>= 8 km
>= 3000ft
5 / 8 km
1000 / 3000 ft
1500m / 5 km
500 / 1000 ft
800 / 1500m
200 / 500 ft
< 800m
< 200 ft
Simboli :   Temporali  Nebbia  Neve Forte  Precipitazioni Forti  Vento > 20 kt
SIGMETs :   Varie  Temporali  Ghiacco  Turbolenza  Onda orograficha  Ceneri Vulcaniche






- Altitudine del aeroporto : 20 ft
- Codice IATA : OBN


EGEO - Oban

ULTIMO METAR :
  • 251220Z 22006KT 190V250 9999 SCT014 05/02 Q0991

METARs OBSOLETI :
  • 251150Z 22005KT 9999 BKN013 04/02 Q0991
  • 251120Z 19003KT 150V270 9999 SCT010 SCT020 04/02 Q0991
  • 251050Z 12003KT 070V170 9999 FEW006 BKN015 03/02 Q0992
  • 251020Z 13005KT 090V170 9999 FEW009 03/02 Q0992
  • 250950Z 12005KT 9999 VCSH FEW009 SCT015 02/01 Q0992

TAF TAF EGEO
Valido dal 25 a 12 ore il 25 a 17 ore UTC


251057Z 2512/2517 21007KT 9999 FEW030
TEMPO 2512/2517 5000 SHRASN SHRAGS BKN010CB
PROB40
TEMPO 2512/2517 22015G25KT



MetMap, La meteo Aeronautica in un colpo d'occhio ! - Copyright ORBIFLY Dicembre 2007 - Disclaimer

ORBIFLY MET'MAP TEAM :

Programmazione e sviluppo : Alexandra Zaïnal
Concezione : Baudouin d'Aumeries
Aiuto per la programmazione : Marc-Olivier Méhu
Supporto tecnico e logistico : Manuel Goepfert
Aiuto per la traduzione : Arnaldo La Scala

Contatto : metmap@orbifly.com




FONTI E CREDITI :

   NOAA